SBOSBO RTM / EHRD
Speedbird OnlineSpeedbird Online RTM / EHRD

Rotterdam The Hague Airport
06:50 3.8°C

Location Rotterdam, Netherlands
Latitude: 51.956902
Longitude: 4.43722
Web Airport Website | Wikipedia
Altitude -5 Meter / -15 Feet
Distance 301 KM / 187 Miles
from London.
Time Zone UTC +1 hours (Europe/Amsterdam)
Codes IATA: RTM
ICAO: EHRD
Currency £1 equals EUR 1.14
Runways
RunwayLength (m)Surface
062200Asphalt
242200Asphalt
Radio
TypeDescriptionFrequency
APPRotterdam Approach122.99
ARRSchiphol Arrival118.405
ATISATIS128.565
DEPSchiphol Departure121.205
FISAmsterdam Information124.3
GND/CDLRotterdam Clearance Delivery122.18
TWRRotterdam Tower118.205
Live ATC
METAR EHRD 290525Z AUTO 22009KT 9999 OVC025 04/02 Q1028 NOSIG
TAF TAF EHRD 290516Z 2906/3012 21008KT 9999 BKN025 PROB30 TEMPO 2908/2913 BKN014 BECMG 2913/2916 BKN014 TEMPO 2915/2919 4000 DZRA BKN006 BECMG 2917/2920 25015KT BKN022 BECMG 3001/3004 29016G26KT TEMPO 3001/3004 4000 RADZ -SHRA SCT008 BKN012 FEW015TCU BECMG 3007/3010 30021G32KT
Weather As Of 29 Jan 2023 06:50
Description Overcast clouds
Wind 17 km/h from South-West (220°)
Cloud Cover 100%
Precipitation Rain: none, Snow: none
Sunrise 08:27
Sunset 17:23
Lounges Prima Vista Lounge, International Terminal
Rotations During the last 90 days there were
254 flights from LCY
246 flights to LCY



Support Speedbird Online

© 2017-2023 Speedbird Online